Time;durP1;ratioP1;P1;durP2;ratioP2;P2;SDS_P1;SDS_P2;PMS_P1;PMS_P2;Temp;Humidity;BMP_temperature;BMP_pressure;BME280_temperature;BME280_humidity;BME280_pressure;Samples;Min_cycle;Max_cycle;Signal;HPM_P1;HPM_P2
2023/02/27 00:02:20;;;;;;;28.83;7.05;;;;;;;10.87;52.54;93041.00;5104835;28;20031;-86
2023/02/27 00:04:46;;;;;;;28.80;6.57;;;;;;;10.88;52.44;93047.13;5105078;28;20019;-86
2023/02/27 00:07:12;;;;;;;43.67;7.45;;;;;;;10.97;51.84;93045.09;5104951;28;20039;-87
2023/02/27 00:09:39;;;;;;;25.77;5.35;;;;;;;11.05;51.38;93046.84;5103987;28;20012;-86
2023/02/27 00:12:05;;;;;;;25.23;6.22;;;;;;;11.15;51.14;93053.63;5104956;28;20065;-86
2023/02/27 00:14:30;;;;;;;20.45;5.25;;;;;;;11.22;50.92;93056.53;5104776;28;20095;-86
2023/02/27 00:16:55;;;;;;;27.80;5.93;;;;;;;11.25;51.08;93058.50;5104721;28;20091;-87
2023/02/27 00:19:21;;;;;;;27.75;6.05;;;;;;;11.34;50.79;93055.72;5104651;28;20024;-87
2023/02/27 00:21:46;;;;;;;25.85;5.82;;;;;;;11.36;50.83;93051.59;5105077;28;20061;-88
2023/02/27 00:24:12;;;;;;;31.65;6.63;;;;;;;11.40;50.63;93065.81;5104885;28;20026;-88
2023/02/27 00:26:38;;;;;;;28.60;5.35;;;;;;;11.43;50.55;93046.47;5104803;28;20023;-87
2023/02/27 00:29:05;;;;;;;23.75;4.90;;;;;;;11.48;50.38;93050.81;5103716;28;20024;-88
2023/02/27 00:31:30;;;;;;;39.10;8.27;;;;;;;11.49;50.35;93056.91;5103771;28;20019;-88
2023/02/27 00:33:56;;;;;;;41.72;6.50;;;;;;;11.57;50.10;93048.75;5105033;28;20364;-88
2023/02/27 00:36:21;;;;;;;32.38;7.88;;;;;;;11.60;50.70;93056.09;5104704;28;20036;-87
2023/02/27 00:38:47;;;;;;;24.05;3.55;;;;;;;11.69;51.30;93037.28;5104801;28;20054;-86
2023/02/27 00:41:12;;;;;;;27.55;3.83;;;;;;;11.80;50.70;93042.91;5104227;28;20027;-85
2023/02/27 00:43:38;;;;;;;20.42;3.58;;;;;;;11.90;50.65;93028.31;5104106;28;20390;-86
2023/02/27 00:46:03;;;;;;;39.67;5.03;;;;;;;12.03;49.90;93035.94;5104179;28;20138;-87
2023/02/27 00:48:29;;;;;;;38.40;5.60;;;;;;;12.12;49.72;93026.97;5104436;28;20027;-87
2023/02/27 00:50:54;;;;;;;30.65;5.43;;;;;;;12.22;49.10;93011.22;5103141;28;20019;-88
2023/02/27 00:53:20;;;;;;;30.20;4.55;;;;;;;12.35;48.74;93022.59;5104318;28;20303;-87
2023/02/27 00:55:45;;;;;;;39.58;4.53;;;;;;;12.45;48.28;93046.13;5104192;28;20015;-88
2023/02/27 00:58:10;;;;;;;27.00;5.30;;;;;;;12.51;48.03;93048.56;5104237;28;20302;-88
2023/02/27 01:00:36;;;;;;;30.08;6.55;;;;;;;12.57;47.71;93031.91;5104939;28;20016;-88
2023/02/27 01:03:02;;;;;;;30.38;5.03;;;;;;;12.64;47.27;93042.03;5104306;28;20027;-89
2023/02/27 01:05:28;;;;;;;34.58;5.05;;;;;;;12.72;46.35;93034.94;5104421;28;20119;-88
2023/02/27 01:07:54;;;;;;;32.30;5.80;;;;;;;12.79;46.20;93024.41;5104172;28;20371;-89
2023/02/27 01:10:20;;;;;;;30.85;4.00;;;;;;;12.85;45.83;93037.16;5104258;28;20031;-89
2023/02/27 01:12:45;;;;;;;29.23;4.20;;;;;;;12.92;46.06;93054.50;5104336;28;20023;-89
2023/02/27 01:15:12;;;;;;;28.63;4.32;;;;;;;12.95;45.89;93043.91;5104365;28;20024;-89
2023/02/27 01:17:38;;;;;;;30.63;4.63;;;;;;;13.02;45.74;93051.31;5104636;28;20027;-89
2023/02/27 01:20:05;;;;;;;30.75;6.93;;;;;;;13.08;46.12;93033.09;5104300;28;20043;-89
2023/02/27 01:22:32;;;;;;;28.35;6.95;;;;;;;13.00;46.07;93030.25;5103738;28;20020;-88
2023/02/27 01:24:58;;;;;;;31.42;7.68;;;;;;;12.89;46.87;93045.28;5103921;28;20097;-88
2023/02/27 01:27:23;;;;;;;28.73;9.40;;;;;;;12.76;46.88;93043.81;5103982;28;20016;-88
2023/02/27 01:29:49;;;;;;;34.22;7.22;;;;;;;12.68;47.10;93042.09;5103847;28;20050;-88
2023/02/27 01:32:14;;;;;;;26.92;7.22;;;;;;;12.59;47.41;93045.72;5103820;28;20020;-89
2023/02/27 01:34:40;;;;;;;24.45;6.47;;;;;;;12.48;47.84;93057.28;5103901;28;20051;-88
2023/02/27 01:37:05;;;;;;;36.42;8.38;;;;;;;12.36;48.23;93063.47;5103927;28;20073;-88
2023/02/27 01:39:31;;;;;;;25.63;7.75;;;;;;;12.24;48.44;93067.00;5102913;28;20028;-88
2023/02/27 01:41:57;;;;;;;29.10;7.75;;;;;;;12.16;48.76;93098.06;5102567;28;20024;-88
2023/02/27 01:44:29;;;;;;;27.88;7.70;;;;;;;12.13;49.16;93092.63;5103511;28;20020;-88
2023/02/27 01:46:55;;;;;;;35.60;9.07;;;;;;;12.06;49.14;93113.81;5103371;28;20207;-87
2023/02/27 01:49:28;;;;;;;22.48;7.00;;;;;;;11.92;49.43;93109.63;5103501;28;20095;-87
2023/02/27 01:52:04;;;;;;;31.92;6.97;;;;;;;11.89;49.85;93112.22;5103315;28;20023;-87
2023/02/27 01:54:33;;;;;;;33.33;6.75;;;;;;;11.80;49.96;93106.97;5103250;28;20688;-86
2023/02/27 01:57:01;;;;;;;42.55;8.93;;;;;;;11.75;50.19;93096.53;5101972;28;20028;-85
2023/02/27 01:59:28;;;;;;;33.72;7.65;;;;;;;11.70;50.54;93102.09;5102978;28;20051;-85
2023/02/27 02:01:56;;;;;;;39.22;8.18;;;;;;;11.58;50.63;93119.72;5102992;28;20030;-86
2023/02/27 02:04:25;;;;;;;32.78;9.38;;;;;;;11.45;51.16;93134.94;5102749;28;20031;-86
2023/02/27 02:07:02;;;;;;;30.45;8.45;;;;;;;11.45;51.38;93161.63;5103090;28;20020;-89
2023/02/27 02:09:30;;;;;;;41.75;8.02;;;;;;;11.39;51.42;93154.97;5101880;28;20095;-87
2023/02/27 02:11:58;;;;;;;35.22;7.75;;;;;;;11.36;52.05;93158.31;5102890;28;20095;-87
2023/02/27 02:14:23;;;;;;;32.95;7.00;;;;;;;11.28;55.02;93166.44;5102972;28;20016;-87
2023/02/27 02:17:12;;;;;;;31.15;6.82;;;;;;;11.12;56.71;93164.44;5102640;28;20047;-86
2023/02/27 02:20:16;;;;;;;32.95;8.40;;;;;;;10.91;60.12;93223.19;5101951;28;20016;-89
2023/02/27 02:23:00;;;;;;;37.13;6.95;;;;;;;9.58;70.33;93321.41;5095208;28;20036;-85
2023/02/27 02:25:44;;;;;;;26.98;6.00;;;;;;;8.97;72.74;93311.72;5102630;28;20247;-87
2023/02/27 02:28:21;;;;;;;15.68;2.78;;;;;;;8.80;72.89;93298.47;5102865;28;20091;-83
2023/02/27 02:31:08;;;;;;;6.07;1.40;;;;;;;8.71;73.30;93273.78;5102841;28;20040;-83
2023/02/27 02:34:02;;;;;;;2.67;0.82;;;;;;;8.57;73.28;93282.72;5101409;28;20019;-83
2023/02/27 02:36:59;;;;;;;11.43;1.15;;;;;;;8.43;76.75;93263.50;5101115;28;20287;-83
2023/02/27 02:40:03;;;;;;;2.92;0.70;;;;;;;8.29;76.18;93273.47;5084494;28;20032;-84
2023/02/27 02:42:33;;;;;;;7.97;1.27;;;;;;;8.21;77.65;93275.03;5102553;28;20028;-84
2023/02/27 02:44:58;;;;;;;4.63;1.02;;;;;;;8.17;78.13;93293.44;5102464;28;20099;-85
2023/02/27 02:48:15;;;;;;;5.70;0.90;;;;;;;8.24;77.92;93300.94;5101349;28;20081;-84
2023/02/27 02:51:11;;;;;;;2.67;0.65;;;;;;;8.36;75.42;93293.13;5080707;28;20099;-85
2023/02/27 02:53:45;;;;;;;4.35;0.60;;;;;;;8.59;72.30;93285.84;5097177;28;20107;-85
2023/02/27 02:56:45;;;;;;;3.38;0.80;;;;;;;8.74;71.80;93313.00;5106319;28;20020;-86
2023/02/27 02:59:21;;;;;;;1.42;0.40;;;;;;;8.91;71.42;93291.72;5106285;28;20099;-86
2023/02/27 03:01:56;;;;;;;2.33;0.95;;;;;;;9.01;72.00;93296.69;5106156;28;20020;-86
2023/02/27 03:04:43;;;;;;;3.10;0.63;;;;;;;9.11;71.28;93345.31;5106107;28;20361;-86
2023/02/27 03:07:15;;;;;;;4.57;0.73;;;;;;;9.15;72.10;93339.06;5106235;28;20255;-86
2023/02/27 03:09:47;;;;;;;;;;;;;;;9.23;70.87;93345.47;5106629;28;20020;-85
2023/02/27 03:12:17;;;;;;;4.10;0.85;;;;;;;9.13;75.37;93327.19;5106129;28;20098;-84
2023/02/27 03:15:16;;;;;;;6.97;1.67;;;;;;;9.06;75.73;93366.75;5105981;28;20103;-84
2023/02/27 03:17:51;;;;;;;10.43;1.73;;;;;;;8.95;75.93;93361.75;5097977;28;20256;-87
2023/02/27 03:20:22;;;;;;;6.03;1.92;;;;;;;8.95;76.51;93335.16;5106223;28;20263;-87
2023/02/27 03:22:54;;;;;;;6.25;1.48;;;;;;;8.97;76.59;93362.22;5105863;28;20038;-87
2023/02/27 03:25:22;;;;;;;4.82;1.63;;;;;;;8.91;76.80;93368.78;5104779;28;20188;-87
2023/02/27 03:27:54;;;;;;;6.22;1.88;;;;;;;8.82;76.31;93397.25;5104323;28;20026;-85
2023/02/27 03:30:28;;;;;;;8.07;2.28;;;;;;;8.73;77.92;93415.06;5105642;28;20071;-86
2023/02/27 03:32:57;;;;;;;6.93;3.15;;;;;;;8.35;76.85;93415.63;5105825;28;20134;-88
2023/02/27 03:35:39;;;;;;;9.88;4.00;;;;;;;8.17;76.91;93436.03;5105843;28;20420;-88
2023/02/27 03:38:17;;;;;;;9.15;4.28;;;;;;;8.04;75.07;93435.06;5105752;28;20310;-88
2023/02/27 03:41:02;;;;;;;13.20;4.38;;;;;;;7.79;76.98;93455.06;5105648;28;20047;-88
2023/02/27 03:43:56;;;;;;;9.63;5.10;;;;;;;7.77;77.20;93463.31;5105745;28;20020;-88
2023/02/27 03:46:25;;;;;;;14.25;5.10;;;;;;;7.80;77.78;93465.38;5105375;28;20048;-88
2023/02/27 03:48:50;;;;;;;13.30;5.13;;;;;;;7.78;77.11;93470.22;5105383;28;20081;-88
2023/02/27 03:51:20;;;;;;;9.23;4.28;;;;;;;7.72;77.05;93471.44;5104451;28;20369;-88
2023/02/27 03:54:10;;;;;;;10.40;3.92;;;;;;;7.77;76.53;93471.28;5105211;28;20356;-84
2023/02/27 03:56:49;;;;;;;9.88;4.72;;;;;;;7.79;75.16;93477.06;5105353;28;20016;-86
2023/02/27 03:59:14;;;;;;;8.48;3.80;;;;;;;7.84;75.07;93486.78;5104060;28;20070;-85
2023/02/27 04:01:41;;;;;;;8.85;4.10;;;;;;;7.86;74.87;93497.06;5104876;28;20083;-88
2023/02/27 04:04:10;;;;;;;6.88;3.60;;;;;;;7.88;74.73;93494.94;5105259;28;20062;-86
2023/02/27 04:09:33;;;;;;;8.02;3.95;;;;;;;7.86;74.08;93484.63;5105139;28;20083;-85
2023/02/27 04:12:27;;;;;;;8.90;3.83;;;;;;;7.85;73.77;93493.66;5105052;28;20065;-85
2023/02/27 04:15:01;;;;;;;10.32;5.93;;;;;;;7.81;73.68;93490.03;5104679;28;20022;-86
2023/02/27 04:17:29;;;;;;;16.58;4.18;;;;;;;7.82;73.79;93492.41;5104817;28;20027;-86
2023/02/27 04:19:55;;;;;;;7.95;4.45;;;;;;;7.79;73.70;93494.88;5104642;28;20042;-85
2023/02/27 04:23:02;;;;;;;11.52;4.00;;;;;;;7.79;72.85;93514.22;5104835;28;20031;-86
2023/02/27 04:25:42;;;;;;;9.70;3.33;;;;;;;7.75;72.66;93518.56;5081246;28;20040;-86
2023/02/27 04:28:16;;;;;;;6.53;3.20;;;;;;;7.68;73.06;93520.88;5104706;28;20023;-86
2023/02/27 04:30:50;;;;;;;10.15;3.85;;;;;;;7.67;72.84;93519.28;5104554;28;20314;-87
2023/02/27 04:33:19;;;;;;;7.43;3.50;;;;;;;7.67;72.86;93543.16;5104366;28;20020;-86
2023/02/27 04:35:58;;;;;;;7.35;3.80;;;;;;;7.68;72.29;93543.97;5104444;28;20024;-86
2023/02/27 04:38:37;;;;;;;14.50;4.25;;;;;;;7.53;71.73;93550.41;5104311;28;20229;-86
2023/02/27 04:41:11;;;;;;;10.70;4.57;;;;;;;7.32;71.81;93569.44;5104219;28;20073;-86
2023/02/27 04:43:39;;;;;;;7.88;4.13;;;;;;;7.21;72.13;93586.66;5103007;28;20024;-86
2023/02/27 04:46:08;;;;;;;9.02;4.57;;;;;;;7.12;72.00;93591.84;5104216;28;20406;-87
2023/02/27 04:48:45;;;;;;;10.85;4.75;;;;;;;7.03;72.91;93589.13;5103989;28;20081;-87
2023/02/27 04:51:26;;;;;;;10.63;5.07;;;;;;;6.94;74.07;93590.91;5102933;28;20062;-87
2023/02/27 04:54:07;;;;;;;9.25;4.93;;;;;;;6.94;74.74;93593.56;5104232;28;20249;-87
2023/02/27 04:56:41;;;;;;;10.13;5.00;;;;;;;6.95;74.83;93597.75;5104161;28;20016;-87
2023/02/27 04:59:18;;;;;;;9.45;4.55;;;;;;;6.96;75.46;93591.41;5104213;28;20024;-87
2023/02/27 05:01:55;;;;;;;12.85;4.72;;;;;;;7.03;75.81;93604.25;5103917;28;20047;-87
2023/02/27 05:04:24;;;;;;;8.77;4.85;;;;;;;7.05;75.36;93603.97;5103834;28;20043;-87
2023/02/27 05:06:53;;;;;;;10.90;5.88;;;;;;;6.89;74.77;93603.47;5102854;28;20023;-87
2023/02/27 05:09:25;;;;;;;11.38;4.78;;;;;;;6.81;74.78;93618.19;5103897;28;20099;-86
2023/02/27 05:12:22;;;;;;;9.85;5.13;;;;;;;6.76;74.67;93626.25;5103961;28;20028;-89
2023/02/27 05:15:01;;;;;;;12.07;5.13;;;;;;;6.69;75.47;93641.72;5088695;28;20061;-89
2023/02/27 05:17:35;;;;;;;9.25;4.80;;;;;;;6.62;75.77;93632.31;5104174;28;20020;-88
2023/02/27 05:20:01;;;;;;;12.43;5.65;;;;;;;6.60;75.75;93634.47;5104111;28;20057;-89
2023/02/27 05:22:29;;;;;;;8.38;4.15;;;;;;;6.59;75.56;93643.50;5103906;28;20218;-89
2023/02/27 05:25:10;;;;;;;15.80;5.85;;;;;;;6.49;74.84;93646.31;5104020;28;20028;-89
2023/02/27 05:27:45;;;;;;;18.83;6.22;;;;;;;6.51;75.43;93649.44;5104068;28;20095;-86
2023/02/27 05:30:46;;;;;;;12.82;4.95;;;;;;;6.53;75.72;93643.88;5104169;28;20036;-89
2023/02/27 05:33:28;;;;;;;10.57;5.30;;;;;;;6.56;76.15;93649.38;5103695;28;20029;-88
2023/02/27 05:36:07;;;;;;;8.60;4.60;;;;;;;6.54;75.35;93656.03;5103599;28;20023;-89
2023/02/27 05:38:38;;;;;;;10.32;5.05;;;;;;;6.52;75.66;93664.28;5103248;28;20230;-89
2023/02/27 05:41:10;;;;;;;14.02;5.70;;;;;;;6.57;75.64;93677.44;5102380;28;20081;-89
2023/02/27 05:43:45;;;;;;;13.73;4.93;;;;;;;6.60;75.88;93665.47;5102381;28;20108;-89
2023/02/27 05:46:20;;;;;;;10.52;4.78;;;;;;;6.67;75.11;93665.84;5103504;28;20051;-89
2023/02/27 05:48:55;;;;;;;12.38;5.38;;;;;;;6.62;75.32;93668.59;5103615;28;20222;-88
2023/02/27 05:51:26;;;;;;;9.43;4.88;;;;;;;6.57;75.96;93658.91;5102010;28;20032;-84
2023/02/27 05:54:31;;;;;;;7.65;4.25;;;;;;;6.57;75.89;93668.69;5103018;28;20020;-84
2023/02/27 05:56:58;;;;;;;6.75;3.42;;;;;;;6.53;75.51;93671.13;5102343;28;20059;-83
2023/02/27 05:59:31;;;;;;;5.35;2.92;;;;;;;6.53;74.79;93671.13;5103035;28;20326;-84
2023/02/27 06:01:56;;;;;;;6.45;2.65;;;;;;;6.48;73.99;93675.75;5102896;28;20024;-84
2023/02/27 06:04:22;;;;;;;6.00;3.13;;;;;;;6.48;74.67;93692.41;5102717;28;20034;-86
2023/02/27 06:06:47;;;;;;;5.22;2.55;;;;;;;6.51;74.31;93694.47;5102738;28;20028;-85
2023/02/27 06:09:15;;;;;;;5.80;3.08;;;;;;;6.53;73.95;93692.31;5102764;28;20024;-84
2023/02/27 06:11:41;;;;;;;24.58;10.02;;;;;;;6.57;74.31;93692.50;5101536;28;20171;-85
2023/02/27 06:14:06;;;;;;;9.23;4.00;;;;;;;6.60;74.13;93705.19;5103125;28;20016;-85
2023/02/27 06:16:36;;;;;;;8.70;3.28;;;;;;;6.65;74.22;93702.44;5102758;28;20322;-87
2023/02/27 06:19:02;;;;;;;4.32;2.65;;;;;;;6.59;71.54;93716.84;5102810;28;20069;-87
2023/02/27 06:21:28;;;;;;;5.15;2.40;;;;;;;6.46;71.96;93712.31;5101772;28;20076;-87
2023/02/27 06:23:53;;;;;;;17.95;6.65;;;;;;;6.39;71.90;93716.13;5102614;28;20330;-85
2023/02/27 06:26:19;;;;;;;6.10;3.17;;;;;;;6.37;73.04;93709.53;5105276;28;20027;-86
2023/02/27 06:28:45;;;;;;;15.95;4.55;;;;;;;6.26;72.64;93708.91;5106751;28;20091;-85
2023/02/27 06:31:10;;;;;;;13.48;4.57;;;;;;;6.27;73.14;93722.94;5105487;28;20089;-85
2023/02/27 06:33:36;;;;;;;7.20;2.88;;;;;;;6.25;73.00;93722.44;5105734;28;20087;-86
2023/02/27 06:36:01;;;;;;;9.73;3.53;;;;;;;6.29;73.32;93723.41;5106750;28;20020;-86
2023/02/27 06:38:27;;;;;;;6.45;2.35;;;;;;;6.25;72.12;93722.44;5106722;28;20027;-86
2023/02/27 06:40:52;;;;;;;6.00;3.05;;;;;;;6.32;71.88;93726.28;5106337;28;20042;-85
2023/02/27 06:43:18;;;;;;;4.22;2.03;;;;;;;6.22;72.04;93739.69;5106378;28;20024;-85
2023/02/27 06:45:43;;;;;;;5.30;2.40;;;;;;;6.29;72.28;93740.13;5105274;28;20024;-85
2023/02/27 06:48:11;;;;;;;4.25;2.55;;;;;;;6.34;71.83;93747.19;5106648;28;20027;-85
2023/02/27 06:50:36;;;;;;;6.40;2.50;;;;;;;6.33;72.18;93753.53;5106545;28;20031;-85
2023/02/27 06:53:05;;;;;;;5.88;2.75;;;;;;;6.39;71.43;93749.72;5106269;28;20095;-85
2023/02/27 06:55:32;;;;;;;8.73;3.22;;;;;;;6.49;71.34;93743.50;5106234;28;20333;-85
2023/02/27 06:57:57;;;;;;;8.50;3.35;;;;;;;6.57;70.79;93738.34;5106230;28;20020;-85
2023/02/27 07:00:23;;;;;;;5.72;2.97;;;;;;;6.70;70.86;93747.38;5106330;28;20031;-88
2023/02/27 07:02:49;;;;;;;6.50;2.80;;;;;;;6.79;70.48;93735.03;5106065;28;20341;-87
2023/02/27 07:05:14;;;;;;;5.75;3.50;;;;;;;6.83;70.29;93740.53;5106433;28;20031;-89
2023/02/27 07:07:40;;;;;;;11.93;3.20;;;;;;;6.86;69.65;93733.88;5106080;28;20020;-87
2023/02/27 07:10:11;;;;;;;6.85;3.03;;;;;;;6.87;70.00;93733.59;5106367;28;20319;-88
2023/02/27 07:12:38;;;;;;;10.80;3.53;;;;;;;6.79;69.94;93744.84;5105429;28;20024;-88
2023/02/27 07:15:04;;;;;;;11.40;3.10;;;;;;;6.79;69.84;93752.78;5106038;28;20062;-88
2023/02/27 07:17:30;;;;;;;7.13;3.20;;;;;;;6.79;69.45;93752.78;5106037;28;20036;-88
2023/02/27 07:19:56;;;;;;;8.57;3.35;;;;;;;6.81;69.42;93753.28;5104825;28;20087;-88
2023/02/27 07:22:21;;;;;;;7.30;3.42;;;;;;;6.79;69.71;93747.50;5106191;28;20065;-88
2023/02/27 07:24:47;;;;;;;5.13;2.90;;;;;;;6.73;70.01;93753.97;5105965;28;20024;-87
2023/02/27 07:27:12;;;;;;;5.28;2.53;;;;;;;6.60;70.09;93761.59;5104721;28;20028;-87
2023/02/27 07:29:38;;;;;;;5.97;2.67;;;;;;;6.58;70.64;93769.03;5106078;28;20123;-89
2023/02/27 07:32:03;;;;;;;6.70;3.00;;;;;;;6.57;71.06;93770.13;5105936;28;20389;-90
2023/02/27 07:34:28;;;;;;;8.32;2.95;;;;;;;6.51;71.56;93775.75;5106021;28;20028;-88
2023/02/27 07:36:54;;;;;;;6.18;3.20;;;;;;;6.54;71.61;93765.38;5105191;28;20256;-89
2023/02/27 07:39:19;;;;;;;7.45;3.63;;;;;;;6.40;70.83;93759.25;5106158;28;20039;-90
2023/02/27 07:41:45;;;;;;;7.78;2.75;;;;;;;6.08;70.76;93779.31;5105795;28;20028;-88
2023/02/27 07:44:10;;;;;;;7.13;2.53;;;;;;;5.96;70.81;93778.94;5106076;28;20042;-86
2023/02/27 07:46:36;;;;;;;3.88;2.10;;;;;;;5.86;71.30;93773.75;5104554;28;20051;-75
2023/02/27 07:49:02;;;;;;;7.13;2.97;;;;;;;5.88;71.89;93779.56;5105195;28;20016;-72
2023/02/27 07:51:28;;;;;;;10.27;3.00;;;;;;;5.82;73.54;93777.00;5105287;28;20191;-72
2023/02/27 07:53:57;;;;;;;6.20;3.25;;;;;;;5.90;73.31;93785.34;5105165;28;20012;-72
2023/02/27 07:56:22;;;;;;;5.10;2.97;;;;;;;5.93;72.91;93798.03;5105267;28;20024;-72
2023/02/27 07:58:48;;;;;;;6.38;3.72;;;;;;;6.01;72.65;93781.53;5104964;28;20218;-72
2023/02/27 08:01:13;;;;;;;8.82;3.88;;;;;;;6.10;71.80;93790.38;5105174;28;20057;-71
2023/02/27 08:03:40;;;;;;;6.18;3.47;;;;;;;6.22;72.00;93782.81;5105293;28;20318;-73
2023/02/27 08:06:05;;;;;;;6.28;3.67;;;;;;;6.31;72.12;93790.09;5105374;28;20310;-73
2023/02/27 08:08:31;;;;;;;6.20;3.60;;;;;;;6.45;72.22;93792.81;5105019;28;20028;-71
2023/02/27 08:10:57;;;;;;;8.45;3.40;;;;;;;6.60;71.75;93787.28;5104548;28;20340;-71
2023/02/27 08:13:22;;;;;;;6.20;2.88;;;;;;;6.67;71.34;93792.19;5104701;28;20020;-72
2023/02/27 08:15:48;;;;;;;7.05;2.92;;;;;;;6.79;71.69;93795.19;5104527;28;20094;-77
2023/02/27 08:18:13;;;;;;;13.90;4.63;;;;;;;6.85;70.86;93788.72;5104674;28;20035;-77
2023/02/27 08:20:39;;;;;;;6.30;3.00;;;;;;;6.91;70.38;93789.44;5104599;28;20096;-78
2023/02/27 08:23:04;;;;;;;7.93;3.20;;;;;;;6.97;70.98;93801.50;5103240;28;20436;-78
2023/02/27 08:25:30;;;;;;;5.75;3.08;;;;;;;7.03;70.35;93784.44;5104584;28;20028;-78
2023/02/27 08:27:55;;;;;;;9.65;3.00;;;;;;;7.07;70.24;93796.03;5104430;28;20057;-78
2023/02/27 08:30:21;;;;;;;6.82;2.65;;;;;;;7.13;70.60;93800.16;5102672;28;20077;-78
2023/02/27 08:32:46;;;;;;;11.68;3.70;;;;;;;7.22;69.87;93803.72;5104223;28;20016;-78
2023/02/27 08:35:12;;;;;;;11.38;3.63;;;;;;;7.32;69.35;93808.03;5104168;28;20081;-78
2023/02/27 08:37:37;;;;;;;9.00;3.15;;;;;;;7.46;70.03;93792.13;5104554;28;20034;-78
2023/02/27 08:40:06;;;;;;;8.13;3.75;;;;;;;7.67;70.21;93789.88;5104229;28;20024;-78
2023/02/27 08:42:32;;;;;;;8.57;3.22;;;;;;;7.94;68.78;93788.28;5104032;28;20027;-73
2023/02/27 08:44:57;;;;;;;44.05;13.93;;;;;;;8.11;67.45;93788.44;5104271;28;20027;-73
2023/02/27 08:47:23;;;;;;;15.48;5.13;;;;;;;8.22;67.37;93792.44;5104058;28;20268;-74
2023/02/27 08:49:48;;;;;;;12.75;3.63;;;;;;;8.19;67.15;93795.69;5103793;28;20055;-76
2023/02/27 08:52:13;;;;;;;9.45;2.70;;;;;;;8.36;66.18;93794.25;5103965;28;20047;-76
2023/02/27 08:54:39;;;;;;;6.30;3.15;;;;;;;8.47;67.36;93790.34;5104075;28;20022;-75
2023/02/27 08:57:04;;;;;;;10.63;4.10;;;;;;;8.61;66.01;93803.56;5103885;28;20019;-73
2023/02/27 08:59:31;;;;;;;6.47;2.83;;;;;;;8.76;65.45;93802.41;5103979;28;20016;-75
2023/02/27 09:01:56;;;;;;;8.75;2.90;;;;;;;8.91;65.30;93802.03;5103761;28;20091;-76
2023/02/27 09:04:22;;;;;;;12.18;4.30;;;;;;;9.15;64.53;93814.22;5103634;28;20062;-75
2023/02/27 09:06:47;;;;;;;7.60;3.28;;;;;;;9.31;64.06;93811.97;5103790;28;20069;-74
2023/02/27 09:09:13;;;;;;;19.55;4.93;;;;;;;9.46;63.51;93821.41;5103915;28;20051;-75
2023/02/27 09:11:38;;;;;;;11.35;3.63;;;;;;;9.52;62.38;93820.19;5103851;28;20028;-75
2023/02/27 09:14:06;;;;;;;16.35;3.28;;;;;;;9.56;61.98;93821.91;5103686;28;20030;-77
2023/02/27 09:16:32;;;;;;;6.65;2.92;;;;;;;9.72;62.63;93829.50;5103439;28;20234;-75
2023/02/27 09:18:57;;;;;;;10.15;3.42;;;;;;;9.86;62.47;93829.41;5103684;28;20070;-75
2023/02/27 09:21:23;;;;;;;7.80;3.03;;;;;;;10.06;61.32;93823.50;5103624;28;20028;-75
2023/02/27 09:23:50;;;;;;;9.43;3.25;;;;;;;10.23;60.81;93844.81;5103277;28;20098;-75
2023/02/27 09:26:16;;;;;;;20.85;4.10;;;;;;;10.40;60.94;93827.31;5103203;28;20023;-75
2023/02/27 09:28:41;;;;;;;7.72;3.90;;;;;;;10.58;60.21;93844.13;5102447;28;20031;-75
2023/02/27 09:31:08;;;;;;;6.43;3.97;;;;;;;10.71;59.48;93843.19;5103550;28;20020;-75
2023/02/27 09:33:36;;;;;;;8.88;3.70;;;;;;;10.82;58.29;93831.09;5103339;28;20195;-75
2023/02/27 09:36:02;;;;;;;6.68;3.25;;;;;;;10.84;58.79;93820.13;5103190;28;20094;-74
2023/02/27 09:38:27;;;;;;;7.22;3.70;;;;;;;10.88;58.31;93833.63;5103288;28;20031;-74
2023/02/27 09:40:58;;;;;;;12.00;3.72;;;;;;;10.97;58.64;93829.06;5103146;28;20027;-75
2023/02/27 09:43:26;;;;;;;7.88;4.05;;;;;;;11.06;58.68;93831.72;5103306;28;20035;-74
2023/02/27 09:45:54;;;;;;;7.47;3.95;;;;;;;11.10;57.67;93841.44;5102936;28;20048;-74
2023/02/27 09:48:29;;;;;;;10.23;4.03;;;;;;;11.10;57.97;93843.34;5103171;28;20048;-75
2023/02/27 09:50:56;;;;;;;10.35;3.78;;;;;;;11.15;57.67;93841.25;5103106;28;20028;-76
2023/02/27 09:53:49;;;;;;;8.10;2.90;;;;;;;11.25;56.11;93853.50;5103496;28;20020;-76
2023/02/27 09:56:45;;;;;;;9.95;3.72;;;;;;;11.11;55.23;93858.22;5102014;28;20312;-76
2023/02/27 09:59:14;;;;;;;9.27;3.45;;;;;;;10.74;56.03;93857.78;5103161;28;20054;-77
2023/02/27 10:01:47;;;;;;;14.75;4.05;;;;;;;10.48;57.21;93855.09;5102883;28;20195;-76
2023/02/27 10:04:30;;;;;;;10.40;3.58;;;;;;;10.59;57.85;93873.13;5103137;28;20039;-77
2023/02/27 10:07:15;;;;;;;9.27;5.18;;;;;;;10.59;58.21;93862.47;5103569;28;20107;-78
2023/02/27 10:09:43;;;;;;;5.93;3.40;;;;;;;10.71;58.79;93859.19;5102934;28;20322;-78
2023/02/27 10:12:24;;;;;;;10.48;3.75;;;;;;;10.81;57.69;93869.53;5103088;28;20040;-76
2023/02/27 10:14:56;;;;;;;11.38;4.50;;;;;;;10.69;57.38;93871.28;5102787;28;20016;-75
2023/02/27 10:17:27;;;;;;;9.65;4.80;;;;;;;10.64;57.58;93870.31;5102747;28;20042;-75
2023/02/27 10:19:53;;;;;;;9.38;3.80;;;;;;;10.66;57.42;93871.88;5102854;28;20230;-74
2023/02/27 10:22:25;;;;;;;7.22;4.13;;;;;;;10.74;58.80;93873.78;5102650;28;20016;-74
2023/02/27 10:25:01;;;;;;;11.48;4.45;;;;;;;10.91;59.45;93865.78;5102705;28;20217;-76
2023/02/27 10:27:30;;;;;;;17.20;5.20;;;;;;;11.10;58.21;93848.66;5102703;28;20035;-76
2023/02/27 10:30:28;;;;;;;9.60;4.00;;;;;;;11.29;58.28;93865.09;5102776;28;20039;-75
2023/02/27 10:33:26;;;;;;;13.43;4.03;;;;;;;11.36;55.92;93852.06;5092574;28;20032;-76
2023/02/27 10:35:52;;;;;;;8.18;4.13;;;;;;;11.39;57.72;93848.75;5102624;28;20338;-74
2023/02/27 10:38:43;;;;;;;20.85;4.30;;;;;;;11.62;57.09;93844.00;5102885;28;20257;-76
2023/02/27 10:41:11;;;;;;;17.15;5.43;;;;;;;11.81;56.95;93843.59;5102718;28;20091;-76
2023/02/27 10:43:37;;;;;;;12.63;4.32;;;;;;;11.96;55.08;93852.22;5102830;28;20256;-73
2023/02/27 10:46:11;;;;;;;12.55;4.88;;;;;;;12.10;55.35;93846.66;5101197;28;20174;-74
2023/02/27 10:48:37;;;;;;;11.48;5.10;;;;;;;12.19;54.82;93845.50;5102566;28;20069;-75
2023/02/27 10:51:24;;;;;;;15.30;4.78;;;;;;;12.41;54.16;93851.66;5102493;28;20027;-74
2023/02/27 10:53:52;;;;;;;8.73;4.22;;;;;;;12.56;54.45;93847.63;5102325;28;20117;-74
2023/02/27 10:56:26;;;;;;;13.15;4.72;;;;;;;12.57;52.58;93860.66;5102471;28;20061;-75
2023/02/27 10:59:03;;;;;;;16.90;4.35;;;;;;;12.72;51.96;93853.97;5102529;28;20191;-75
2023/02/27 11:01:43;;;;;;;11.32;4.40;;;;;;;12.93;52.52;93839.81;5102337;28;20187;-76
2023/02/27 11:04:11;;;;;;;12.98;5.50;;;;;;;13.22;52.37;93852.28;5102397;28;20020;-73
2023/02/27 11:06:37;;;;;;;15.00;4.70;;;;;;;13.33;50.54;93853.47;5102456;28;20027;-73
2023/02/27 11:09:18;;;;;;;12.32;5.10;;;;;;;13.52;50.29;93838.78;5102224;28;20020;-73
2023/02/27 11:11:43;;;;;;;8.48;4.97;;;;;;;13.62;51.57;93833.78;5102124;28;20028;-77
2023/02/27 11:14:29;;;;;;;18.52;6.07;;;;;;;13.74;49.91;93825.00;5106123;28;20083;-75
2023/02/27 11:16:57;;;;;;;14.20;4.25;;;;;;;13.55;50.10;93822.81;5105790;28;20024;-74
2023/02/27 11:19:43;;;;;;;8.10;4.82;;;;;;;13.52;50.26;93828.09;5105730;28;20234;-75
2023/02/27 11:22:14;;;;;;;17.02;5.60;;;;;;;13.33;49.10;93829.38;5105329;28;20055;-75
2023/02/27 11:24:40;;;;;;;15.07;5.45;;;;;;;13.33;49.50;93826.72;5105903;28;20030;-75
2023/02/27 11:27:27;;;;;;;13.32;5.30;;;;;;;13.39;50.38;93812.00;5105876;28;20020;-75
2023/02/27 11:29:56;;;;;;;16.83;5.35;;;;;;;13.28;50.66;93805.47;5105511;28;20044;-76
2023/02/27 11:32:24;;;;;;;15.57;6.30;;;;;;;13.30;50.62;93805.16;5105871;28;20031;-76
2023/02/27 11:34:51;;;;;;;15.13;5.82;;;;;;;13.16;51.36;93805.44;5105855;28;20016;-76
2023/02/27 11:37:35;;;;;;;21.73;6.53;;;;;;;13.10;51.89;93820.91;5105531;28;20028;-76
2023/02/27 11:40:13;;;;;;;15.43;6.13;;;;;;;13.07;51.05;93820.78;5105337;28;20336;-74
2023/02/27 11:43:03;;;;;;;17.20;5.90;;;;;;;12.81;52.00;93813.78;5105517;28;20023;-75
2023/02/27 11:45:32;;;;;;;22.92;6.45;;;;;;;12.78;52.76;93820.56;5105617;28;20015;-77
2023/02/27 11:48:06;;;;;;;20.17;7.43;;;;;;;12.68;52.55;93826.31;5105089;28;20026;-76
2023/02/27 11:50:57;;;;;;;18.67;6.25;;;;;;;12.47;53.12;93823.63;5105587;28;20026;-77
2023/02/27 11:53:59;;;;;;;22.70;7.53;;;;;;;12.11;54.41;93822.28;5105226;28;20016;-77
2023/02/27 11:57:03;;;;;;;19.67;6.68;;;;;;;11.96;55.07;93814.81;5105165;28;20027;-78
2023/02/27 11:59:29;;;;;;;29.70;7.03;;;;;;;11.95;56.40;93818.59;5070790;28;20252;-78